createdAt,value
2022-11-05T00:02:59.112Z,23.80
2022-11-05T00:08:23.026Z,21.90
2022-11-05T00:13:44.333Z,24.33
2022-11-05T00:19:06.560Z,21.60
2022-11-05T00:24:28.149Z,20.33
2022-11-05T00:29:30.664Z,19.20
2022-11-05T00:34:33.303Z,27.20
2022-11-05T00:39:35.814Z,22.03
2022-11-05T00:44:56.624Z,23.40
2022-11-05T00:49:59.062Z,25.30
2022-11-05T00:55:01.658Z,20.10
2022-11-05T01:00:04.522Z,28.03
2022-11-05T01:05:07.200Z,24.77
2022-11-05T01:10:09.804Z,34.37
2022-11-05T01:15:12.410Z,23.20
2022-11-05T01:20:15.038Z,24.23
2022-11-05T01:25:17.751Z,30.43
2022-11-05T01:30:20.571Z,17.40
2022-11-05T01:35:23.452Z,18.93
2022-11-05T01:40:26.556Z,24.10
2022-11-05T01:45:29.303Z,21.37
2022-11-05T01:50:41.344Z,19.30
2022-11-05T01:55:49.733Z,19.23
2022-11-05T02:00:53.176Z,17.27
2022-11-05T02:05:57.360Z,19.57
2022-11-05T02:10:59.796Z,18.20
2022-11-05T02:16:27.797Z,20.03
2022-11-05T02:22:07.840Z,20.97
2022-11-05T02:27:22.355Z,19.00
2022-11-05T02:32:36.886Z,16.30
2022-11-05T02:37:41.444Z,19.17
2022-11-05T02:42:55.851Z,20.10
2022-11-05T02:48:07.383Z,22.63
2022-11-05T02:53:19.363Z,16.77
2022-11-05T02:58:21.956Z,17.20
2022-11-05T03:03:29.352Z,19.80
2022-11-05T03:08:50.215Z,17.60
2022-11-05T03:13:52.691Z,16.80
2022-11-05T03:19:19.921Z,15.53
2022-11-05T03:24:32.495Z,16.80
2022-11-05T03:29:43.059Z,16.83
2022-11-05T03:34:54.179Z,16.67
2022-11-05T03:39:59.693Z,18.00
2022-11-05T03:45:09.598Z,17.60
2022-11-05T03:50:23.514Z,15.87
2022-11-05T03:55:32.765Z,15.80
2022-11-05T04:00:35.805Z,13.57
2022-11-05T04:05:38.380Z,14.90
2022-11-05T04:10:59.581Z,15.33
2022-11-05T04:16:20.471Z,14.70
2022-11-05T04:21:49.001Z,14.93
2022-11-05T04:26:51.454Z,14.87
2022-11-05T04:31:54.285Z,13.30
2022-11-05T04:36:56.641Z,13.90
2022-11-05T04:41:59.021Z,13.37
2022-11-05T04:47:01.466Z,12.07
2022-11-05T04:52:04.110Z,13.50
2022-11-05T04:57:06.541Z,13.50
2022-11-05T05:02:09.053Z,9.00
2022-11-05T05:07:11.514Z,9.50
2022-11-05T05:12:13.988Z,9.70
2022-11-05T05:17:16.909Z,10.23
2022-11-05T05:22:19.310Z,11.50
2022-11-05T05:27:22.945Z,10.50
2022-11-05T05:32:26.500Z,9.60
2022-11-05T05:37:29.042Z,10.27
2022-11-05T05:42:31.507Z,9.73
2022-11-05T05:47:33.867Z,8.40
2022-11-05T05:52:36.300Z,8.70
2022-11-05T05:57:39.055Z,8.20
2022-11-05T06:02:41.956Z,7.07
2022-11-05T06:07:45.209Z,9.37
2022-11-05T06:12:47.528Z,6.73
2022-11-05T06:17:50.051Z,7.70
2022-11-05T06:22:59.024Z,8.57
2022-11-05T06:28:01.428Z,4.63
2022-11-05T06:33:05.395Z,5.87
2022-11-05T06:38:07.764Z,8.07
2022-11-05T06:43:10.719Z,8.43
2022-11-05T06:48:13.237Z,7.37
2022-11-05T06:53:15.800Z,7.90
2022-11-05T06:58:18.622Z,8.27
2022-11-05T07:03:21.091Z,7.90
2022-11-05T07:08:24.320Z,6.40
2022-11-05T07:13:26.967Z,6.80
2022-11-05T07:18:29.409Z,6.60
2022-11-05T07:23:31.801Z,7.07
2022-11-05T07:28:34.188Z,6.20
2022-11-05T07:33:36.929Z,2.57
2022-11-05T07:38:39.348Z,6.27
2022-11-05T07:43:41.864Z,6.57
2022-11-05T07:48:44.246Z,7.53
2022-11-05T07:53:48.284Z,5.27
2022-11-05T07:58:50.929Z,6.30
2022-11-05T08:03:53.410Z,5.53
2022-11-05T08:08:56.038Z,4.77
2022-11-05T08:13:58.500Z,7.20
2022-11-05T08:19:01.017Z,6.13
2022-11-05T08:24:03.846Z,6.23
2022-11-05T08:29:06.203Z,5.27
2022-11-05T08:34:08.567Z,6.00
2022-11-05T08:39:16.686Z,8.07
2022-11-05T08:44:19.391Z,5.87
2022-11-05T08:49:22.073Z,6.83
2022-11-05T08:54:24.620Z,6.90
2022-11-05T08:59:29.246Z,5.27
2022-11-05T09:04:31.920Z,7.77
2022-11-05T09:09:34.324Z,6.47
2022-11-05T09:14:36.837Z,9.57
2022-11-05T09:19:40.049Z,6.00
2022-11-05T09:24:43.770Z,6.13
2022-11-05T09:29:46.158Z,5.83
2022-11-05T09:34:50.970Z,6.63
2022-11-05T09:39:53.691Z,5.20
2022-11-05T09:45:03.976Z,6.57
2022-11-05T09:50:12.571Z,5.47
2022-11-05T09:55:26.380Z,5.17
2022-11-05T10:00:31.281Z,10.27
2022-11-05T10:05:34.934Z,7.93
2022-11-05T10:10:43.284Z,5.03
2022-11-05T10:15:58.470Z,6.00
2022-11-05T10:21:01.212Z,6.43
2022-11-05T10:26:09.230Z,6.93
2022-11-05T10:31:18.193Z,8.67
2022-11-05T10:36:27.973Z,7.40
2022-11-05T10:41:42.598Z,10.10
2022-11-05T10:46:58.235Z,6.47
2022-11-05T10:52:10.207Z,14.17
2022-11-05T10:57:34.834Z,5.90
2022-11-05T11:02:37.345Z,9.83
2022-11-05T11:07:40.640Z,5.90
2022-11-05T11:12:43.636Z,9.07
2022-11-05T11:17:46.575Z,8.17
2022-11-05T11:23:12.613Z,5.50
2022-11-05T11:28:33.034Z,17.00
2022-11-05T11:33:37.780Z,12.53
2022-11-05T11:38:40.739Z,13.33
2022-11-05T11:43:45.035Z,16.47
2022-11-05T11:48:48.910Z,13.73
2022-11-05T11:53:57.198Z,12.53
2022-11-05T11:59:09.550Z,12.77
2022-11-05T12:04:30.170Z,10.37
2022-11-05T12:09:56.056Z,10.70
2022-11-05T12:15:20.625Z,14.07
2022-11-05T12:20:41.934Z,8.40
2022-11-05T12:26:07.471Z,11.20
2022-11-05T12:31:27.943Z,7.00
2022-11-05T12:36:36.152Z,10.60
2022-11-05T12:41:53.856Z,11.37
2022-11-05T12:47:11.480Z,11.93
2022-11-05T12:52:35.741Z,6.73
2022-11-05T12:57:42.062Z,10.17
2022-11-05T13:02:50.761Z,7.70
2022-11-05T13:08:01.810Z,11.00
2022-11-05T13:13:18.128Z,8.50
2022-11-05T13:18:28.087Z,11.77
2022-11-05T13:23:30.582Z,10.90
2022-11-05T13:28:41.202Z,10.80
2022-11-05T13:33:46.502Z,9.20
2022-11-05T13:39:02.697Z,6.53
2022-11-05T13:44:26.317Z,9.37
2022-11-05T13:49:34.538Z,10.77
2022-11-05T13:55:10.604Z,10.00
2022-11-05T14:00:17.420Z,7.50
2022-11-05T14:05:39.420Z,17.00
2022-11-05T14:11:04.637Z,10.47
2022-11-05T14:16:18.245Z,7.87
2022-11-05T14:21:33.004Z,6.60
2022-11-05T14:26:35.509Z,16.57
2022-11-05T14:32:08.450Z,7.37
2022-11-05T14:37:15.389Z,7.67
2022-11-05T14:42:29.674Z,8.03
2022-11-05T14:47:40.725Z,12.53
2022-11-05T14:53:05.281Z,122.77
2022-11-05T14:58:25.989Z,21.83
2022-11-05T15:03:45.872Z,16.37
2022-11-05T15:08:49.001Z,15.03
2022-11-05T15:14:03.680Z,17.07
2022-11-05T15:19:30.949Z,11.20
2022-11-05T15:24:34.862Z,13.53
2022-11-05T15:29:37.382Z,11.87
2022-11-05T15:34:39.861Z,16.73
2022-11-05T15:39:44.309Z,20.50
2022-11-05T15:44:51.705Z,13.03
2022-11-05T15:49:57.162Z,16.33
2022-11-05T15:55:14.944Z,11.17
2022-11-05T16:00:25.278Z,14.83
2022-11-05T16:05:33.552Z,13.17
2022-11-05T16:10:38.793Z,11.43
2022-11-05T16:15:57.233Z,13.73
2022-11-05T16:21:26.909Z,15.97
2022-11-05T16:27:01.267Z,10.77
2022-11-05T16:31:59.990Z,13.20
2022-11-05T16:37:05.144Z,14.73
2022-11-05T16:42:37.991Z,27.23
2022-11-05T16:47:41.046Z,21.03
2022-11-05T16:52:45.993Z,28.13
2022-11-05T16:57:52.922Z,27.77
2022-11-05T17:02:55.772Z,17.73
2022-11-05T17:08:00.659Z,29.43
2022-11-05T17:13:03.236Z,20.30
2022-11-05T17:18:06.168Z,23.67
2022-11-05T17:23:14.304Z,33.47
2022-11-05T17:28:18.077Z,41.37
2022-11-05T17:33:22.885Z,73.47
2022-11-05T17:38:26.709Z,87.67
2022-11-05T17:43:29.181Z,134.73
2022-11-05T17:48:31.635Z,95.80
2022-11-05T17:53:34.528Z,68.27
2022-11-05T17:58:37.238Z,37.50
2022-11-05T18:03:39.711Z,57.97
2022-11-05T18:08:42.265Z,57.97
2022-11-05T18:13:44.690Z,87.53
2022-11-05T18:18:48.782Z,57.00
2022-11-05T18:23:51.533Z,63.17
2022-11-05T18:28:54.219Z,40.63
2022-11-05T18:33:58.819Z,55.30
2022-11-05T18:39:03.654Z,116.97
2022-11-05T18:44:06.354Z,58.97
2022-11-05T18:49:11.963Z,55.57
2022-11-05T18:54:14.874Z,35.53
2022-11-05T19:04:46.874Z,61.73
2022-11-05T19:10:03.164Z,65.73
2022-11-05T19:15:06.114Z,69.33
2022-11-05T19:20:09.405Z,72.20
2022-11-05T19:25:12.053Z,50.73
2022-11-05T19:30:14.665Z,51.73
2022-11-05T19:35:17.753Z,68.93
2022-11-05T19:40:21.209Z,74.00
2022-11-05T19:45:43.619Z,63.20
2022-11-05T19:50:46.005Z,50.73
2022-11-05T19:55:48.960Z,51.60
2022-11-05T20:00:51.687Z,47.80
2022-11-05T20:05:54.939Z,38.03
2022-11-05T20:10:58.236Z,41.67
2022-11-05T20:16:01.429Z,33.10
2022-11-05T20:21:10.113Z,48.37
2022-11-05T20:26:14.552Z,49.17
2022-11-05T20:31:18.882Z,50.33
2022-11-05T20:36:24.059Z,56.07
2022-11-05T20:41:27.252Z,57.50
2022-11-05T20:46:30.413Z,48.33
2022-11-05T20:51:33.417Z,53.90
2022-11-05T20:56:36.071Z,55.70
2022-11-05T21:01:39.180Z,58.97
2022-11-05T21:06:41.751Z,49.40
2022-11-05T21:12:02.776Z,60.27
2022-11-05T21:17:06.778Z,72.17
2022-11-05T21:22:09.404Z,88.97
2022-11-05T21:27:11.889Z,79.17
2022-11-05T21:32:14.684Z,78.93
2022-11-05T21:37:17.900Z,73.23
2022-11-05T21:42:21.119Z,71.57
2022-11-05T21:47:23.796Z,75.77
2022-11-05T21:52:45.107Z,83.10
2022-11-05T21:58:07.047Z,81.30
2022-11-05T22:03:09.669Z,82.55
2022-11-05T22:08:12.929Z,75.43
2022-11-05T22:13:15.626Z,72.00
2022-11-05T22:18:18.083Z,60.50
2022-11-05T22:23:20.656Z,62.20
2022-11-05T22:28:22.995Z,69.90
2022-11-05T22:40:13.691Z,51.37
2022-11-05T22:45:16.206Z,59.60
2022-11-05T22:50:18.641Z,61.23
2022-11-05T22:55:20.949Z,108.53
2022-11-05T23:00:34.743Z,99.67
2022-11-05T23:05:37.397Z,74.20
2022-11-05T23:10:58.699Z,96.60
2022-11-05T23:16:19.849Z,86.10
2022-11-05T23:21:40.824Z,86.00
2022-11-05T23:26:52.027Z,86.70
2022-11-05T23:32:12.827Z,86.10
2022-11-05T23:37:33.904Z,76.47
2022-11-05T23:42:55.175Z,81.03
2022-11-05T23:48:16.647Z,97.57
2022-11-05T23:53:20.688Z,95.43
2022-11-05T23:58:23.138Z,78.40
